createdAt,value
2018-12-13T00:01:30.529Z,2.70
2018-12-13T00:03:58.837Z,2.90
2018-12-13T00:06:33.217Z,3.30
2018-12-13T00:08:57.852Z,3.20
2018-12-13T00:11:26.201Z,3.20
2018-12-13T00:13:54.499Z,3.30
2018-12-13T00:16:22.760Z,3.20
2018-12-13T00:18:51.027Z,3.40
2018-12-13T00:21:19.935Z,3.20
2018-12-13T00:23:48.230Z,3.20
2018-12-13T00:26:16.486Z,3.10
2018-12-13T00:28:44.947Z,3.20
2018-12-13T00:31:13.201Z,3.10
2018-12-13T00:33:41.555Z,2.90
2018-12-13T00:36:09.812Z,3.10
2018-12-13T00:38:38.086Z,3.20
2018-12-13T00:41:06.425Z,3.20
2018-12-13T00:43:34.684Z,3.10
2018-12-13T00:46:02.953Z,3.30
2018-12-13T00:48:31.193Z,3.20
2018-12-13T00:50:59.481Z,3.30
2018-12-13T00:53:27.730Z,3.30
2018-12-13T00:55:56.306Z,3.50
2018-12-13T00:58:24.760Z,3.90
2018-12-13T01:00:55.008Z,3.80
2018-12-13T01:03:23.254Z,3.50
2018-12-13T01:05:51.508Z,3.50
2018-12-13T01:08:19.768Z,3.30
2018-12-13T01:10:48.160Z,3.10
2018-12-13T01:13:16.437Z,2.90
2018-12-13T01:15:44.704Z,2.80
2018-12-13T01:18:13.252Z,2.90
2018-12-13T01:20:41.745Z,2.80
2018-12-13T01:23:10.184Z,2.80
2018-12-13T01:25:38.531Z,2.60
2018-12-13T01:28:06.780Z,2.50
2018-12-13T01:30:35.037Z,2.60
2018-12-13T01:33:03.425Z,2.60
2018-12-13T01:35:31.755Z,2.50
2018-12-13T01:38:00.112Z,2.80
2018-12-13T01:40:28.396Z,2.80
2018-12-13T01:42:56.652Z,2.70
2018-12-13T01:45:24.905Z,2.90
2018-12-13T01:47:53.181Z,3.30
2018-12-13T01:50:21.439Z,3.20
2018-12-13T01:52:49.785Z,3.40
2018-12-13T01:55:18.034Z,3.30
2018-12-13T01:57:46.288Z,3.20
2018-12-13T02:00:14.732Z,3.30
2018-12-13T02:02:43.052Z,3.10
2018-12-13T02:05:11.627Z,3.00
2018-12-13T02:07:39.899Z,3.00
2018-12-13T02:10:08.250Z,2.80
2018-12-13T02:12:36.822Z,2.70
2018-12-13T02:15:05.930Z,2.80
2018-12-13T02:17:34.432Z,2.70
2018-12-13T02:20:02.770Z,2.80
2018-12-13T02:22:31.128Z,2.80
2018-12-13T02:24:59.381Z,2.80
2018-12-13T02:27:27.684Z,2.80
2018-12-13T02:29:55.989Z,3.50
2018-12-13T02:32:24.326Z,3.30
2018-12-13T02:34:52.576Z,3.30
2018-12-13T02:37:20.860Z,3.70
2018-12-13T02:39:49.135Z,3.70
2018-12-13T02:42:17.701Z,3.70
2018-12-13T02:44:45.941Z,3.40
2018-12-13T02:47:14.272Z,3.30
2018-12-13T02:49:42.534Z,3.30
2018-12-13T02:52:10.855Z,3.20
2018-12-13T02:54:39.162Z,3.00
2018-12-13T02:57:07.440Z,3.00
2018-12-13T02:59:35.700Z,3.00
2018-12-13T03:02:04.088Z,3.00
2018-12-13T03:04:32.354Z,3.00
2018-12-13T03:07:00.847Z,2.80
2018-12-13T03:09:29.146Z,2.80
2018-12-13T03:11:57.468Z,2.90
2018-12-13T03:14:25.723Z,3.30
2018-12-13T03:16:54.007Z,3.00
2018-12-13T03:19:22.236Z,2.90
2018-12-13T03:21:50.474Z,2.80
2018-12-13T03:24:18.749Z,2.80
2018-12-13T03:26:46.988Z,2.80
2018-12-13T03:29:15.221Z,2.70
2018-12-13T03:31:43.493Z,2.70
2018-12-13T03:34:11.820Z,2.70
2018-12-13T03:36:40.142Z,2.60
2018-12-13T03:39:08.649Z,2.70
2018-12-13T03:41:36.981Z,2.90
2018-12-13T03:44:05.343Z,3.00
2018-12-13T03:46:33.632Z,3.30
2018-12-13T03:49:01.960Z,3.50
2018-12-13T03:51:30.243Z,3.30
2018-12-13T03:53:58.511Z,3.10
2018-12-13T03:56:26.760Z,3.00
2018-12-13T03:58:55.086Z,3.40
2018-12-13T04:01:23.371Z,3.60
2018-12-13T04:03:51.614Z,3.40
2018-12-13T04:06:19.863Z,3.10
2018-12-13T04:08:48.130Z,3.10
2018-12-13T04:11:16.380Z,3.30
2018-12-13T04:13:44.644Z,3.30
2018-12-13T04:16:12.916Z,3.60
2018-12-13T04:18:41.158Z,3.60
2018-12-13T04:21:09.411Z,3.30
2018-12-13T04:23:37.706Z,2.90
2018-12-13T04:26:05.949Z,2.80
2018-12-13T04:28:34.206Z,2.90
2018-12-13T04:31:02.613Z,3.00
2018-12-13T04:33:30.869Z,3.10
2018-12-13T04:35:59.217Z,3.00
2018-12-13T04:38:27.535Z,2.90
2018-12-13T04:40:55.817Z,2.60
2018-12-13T04:43:24.185Z,2.60
2018-12-13T04:45:52.559Z,2.60
2018-12-13T04:48:20.831Z,2.60
2018-12-13T04:50:49.405Z,2.40
2018-12-13T04:53:17.689Z,2.40
2018-12-13T04:55:46.072Z,2.50
2018-12-13T04:58:14.410Z,2.40
2018-12-13T05:00:42.736Z,2.70
2018-12-13T05:03:11.023Z,2.60
2018-12-13T05:05:39.266Z,2.50
2018-12-13T05:08:07.563Z,2.50
2018-12-13T05:10:47.284Z,2.40
2018-12-13T05:13:15.552Z,2.60
2018-12-13T05:15:43.891Z,2.50
2018-12-13T05:18:12.229Z,2.60
2018-12-13T05:20:40.495Z,2.90
2018-12-13T05:23:08.741Z,2.90
2018-12-13T05:25:37.163Z,3.30
2018-12-13T05:28:05.445Z,3.20
2018-12-13T05:30:33.688Z,3.00
2018-12-13T05:33:01.949Z,2.90
2018-12-13T05:35:30.223Z,3.10
2018-12-13T05:37:58.471Z,3.10
2018-12-13T05:40:26.700Z,3.40
2018-12-13T05:42:55.016Z,3.30
2018-12-13T05:45:23.357Z,3.10
2018-12-13T05:47:51.609Z,3.10
2018-12-13T05:50:19.952Z,3.00
2018-12-13T05:52:48.201Z,2.80
2018-12-13T05:55:16.457Z,2.50
2018-12-13T05:57:44.776Z,2.70
2018-12-13T06:00:13.283Z,2.60
2018-12-13T06:02:41.622Z,2.50
2018-12-13T06:05:09.977Z,2.40
2018-12-13T06:07:38.212Z,2.50
2018-12-13T06:10:06.955Z,2.70
2018-12-13T06:12:35.228Z,2.60
2018-12-13T06:15:03.831Z,2.60
2018-12-13T06:17:32.095Z,2.70
2018-12-13T06:20:00.431Z,2.60
2018-12-13T06:22:28.681Z,2.60
2018-12-13T06:24:56.948Z,2.60
2018-12-13T06:27:25.700Z,2.40
2018-12-13T06:29:58.835Z,2.40
2018-12-13T06:32:24.344Z,2.70
2018-12-13T06:34:52.606Z,2.60
2018-12-13T06:37:20.937Z,2.60
2018-12-13T06:39:49.516Z,2.40
2018-12-13T06:42:18.009Z,2.20
2018-12-13T06:44:46.266Z,2.20
2018-12-13T06:47:14.621Z,2.20
2018-12-13T06:49:42.949Z,2.30
2018-12-13T06:52:11.209Z,2.80
2018-12-13T06:54:39.490Z,2.60
2018-12-13T06:57:07.869Z,2.40
2018-12-13T06:59:36.154Z,2.30
2018-12-13T07:02:04.773Z,2.50
2018-12-13T07:04:33.111Z,2.40
2018-12-13T07:07:01.381Z,2.50
2018-12-13T07:09:29.628Z,2.70
2018-12-13T07:11:57.900Z,2.60
2018-12-13T07:14:26.358Z,2.80
2018-12-13T07:16:54.641Z,2.70
2018-12-13T07:19:23.039Z,2.70
2018-12-13T07:21:51.289Z,2.70
2018-12-13T07:24:19.570Z,2.70
2018-12-13T07:26:47.825Z,2.80
2018-12-13T07:29:16.079Z,2.90
2018-12-13T07:31:44.375Z,2.90
2018-12-13T07:34:12.629Z,3.00
2018-12-13T07:36:40.909Z,2.70
2018-12-13T07:39:10.011Z,2.60
2018-12-13T07:41:38.449Z,2.50
2018-12-13T07:44:06.744Z,2.30
2018-12-13T07:46:35.019Z,2.20
2018-12-13T07:49:03.358Z,2.10
2018-12-13T07:51:31.661Z,2.00
2018-12-13T07:53:59.922Z,2.00
2018-12-13T07:56:29.299Z,2.10
2018-12-13T07:58:57.894Z,2.30
2018-12-13T08:01:26.153Z,2.40
2018-12-13T08:03:55.003Z,2.30
2018-12-13T08:06:23.381Z,2.40
2018-12-13T08:08:51.674Z,2.50
2018-12-13T08:11:19.924Z,2.40
2018-12-13T08:13:48.282Z,2.40
2018-12-13T08:16:16.529Z,2.30
2018-12-13T08:18:44.788Z,2.30
2018-12-13T08:21:13.176Z,2.30
2018-12-13T08:23:41.427Z,2.20
2018-12-13T08:26:09.692Z,2.20
2018-12-13T08:28:37.960Z,2.20
2018-12-13T08:31:06.223Z,2.20
2018-12-13T08:33:35.475Z,2.10
2018-12-13T08:36:04.005Z,2.10
2018-12-13T08:38:32.309Z,2.10
2018-12-13T08:41:00.555Z,2.10
2018-12-13T08:43:28.827Z,2.10
2018-12-13T08:45:57.108Z,2.20
2018-12-13T08:48:25.377Z,2.20
2018-12-13T08:50:54.369Z,2.30
2018-12-13T08:53:23.556Z,2.40
2018-12-13T08:55:51.813Z,2.40
2018-12-13T08:58:20.140Z,2.60
2018-12-13T09:00:48.406Z,2.40
2018-12-13T09:03:16.665Z,2.20
2018-12-13T09:05:44.959Z,2.20
2018-12-13T09:08:13.411Z,2.30
2018-12-13T09:10:41.712Z,2.40
2018-12-13T09:13:09.997Z,2.50
2018-12-13T09:15:38.258Z,2.70
2018-12-13T09:18:06.512Z,2.70
2018-12-13T09:20:34.821Z,2.60
2018-12-13T09:23:03.084Z,2.70
2018-12-13T09:25:31.385Z,2.90
2018-12-13T09:27:59.674Z,3.20
2018-12-13T09:30:27.930Z,3.20
2018-12-13T09:32:56.242Z,3.30
2018-12-13T09:35:24.592Z,3.80
2018-12-13T09:37:52.847Z,3.70
2018-12-13T09:40:21.113Z,3.60
2018-12-13T09:42:49.389Z,3.40
2018-12-13T09:45:17.678Z,3.30
2018-12-13T09:47:46.056Z,3.70
2018-12-13T09:50:14.321Z,3.60
2018-12-13T09:52:42.588Z,3.40
2018-12-13T09:55:10.844Z,3.40
2018-12-13T09:57:39.145Z,3.50
2018-12-13T10:00:09.364Z,3.40
2018-12-13T10:02:37.721Z,3.40
2018-12-13T10:05:06.185Z,3.50
2018-12-13T10:07:34.462Z,3.60
2018-12-13T10:10:02.917Z,3.60
2018-12-13T10:12:31.206Z,3.60
2018-12-13T10:14:59.694Z,3.70
2018-12-13T10:17:27.967Z,3.70
2018-12-13T10:19:56.312Z,3.70
2018-12-13T10:22:24.668Z,3.60
2018-12-13T10:24:52.978Z,3.50
2018-12-13T10:27:21.293Z,3.40
2018-12-13T10:29:49.564Z,3.30
2018-12-13T10:32:17.825Z,3.30
2018-12-13T10:34:46.089Z,3.30
2018-12-13T10:37:14.384Z,3.30
2018-12-13T10:39:42.685Z,3.20
2018-12-13T10:42:10.966Z,3.20
2018-12-13T10:44:41.214Z,3.20
2018-12-13T10:47:09.569Z,3.20
2018-12-13T10:49:37.845Z,3.20
2018-12-13T10:52:06.221Z,3.10
2018-12-13T10:54:34.578Z,3.30
2018-12-13T10:57:02.849Z,3.20
2018-12-13T10:59:31.126Z,3.20
2018-12-13T11:02:01.551Z,3.40
2018-12-13T11:04:30.209Z,3.50
2018-12-13T11:06:58.545Z,3.80
2018-12-13T11:09:26.944Z,3.70
2018-12-13T11:11:55.266Z,3.40
2018-12-13T11:14:23.528Z,3.30
2018-12-13T11:16:51.972Z,3.30
2018-12-13T11:19:20.677Z,3.30
2018-12-13T11:21:48.990Z,3.50
2018-12-13T11:24:17.257Z,3.50
2018-12-13T11:26:45.605Z,3.50
2018-12-13T11:29:25.440Z,3.40
2018-12-13T11:31:53.797Z,3.40
2018-12-13T11:34:22.139Z,3.70
2018-12-13T11:36:50.708Z,3.90
2018-12-13T11:39:18.992Z,3.80
2018-12-13T11:41:47.275Z,3.70
2018-12-13T11:44:15.550Z,3.70
2018-12-13T11:46:43.807Z,3.50
2018-12-13T11:49:12.394Z,3.30
2018-12-13T11:51:40.819Z,3.10
2018-12-13T11:54:23.937Z,3.20
2018-12-13T11:56:52.328Z,3.40
2018-12-13T11:59:20.689Z,3.60
2018-12-13T12:01:48.958Z,3.70
2018-12-13T12:04:17.245Z,3.60
2018-12-13T12:06:45.564Z,3.30
2018-12-13T12:09:13.836Z,3.30
2018-12-13T12:11:42.116Z,3.20
2018-12-13T12:14:10.386Z,3.30
2018-12-13T12:16:38.729Z,3.20
2018-12-13T12:19:07.018Z,3.10
2018-12-13T12:21:35.377Z,3.20
2018-12-13T12:24:03.820Z,3.50
2018-12-13T12:26:32.105Z,3.40
2018-12-13T12:29:00.701Z,3.20
2018-12-13T12:31:28.974Z,3.10
2018-12-13T12:33:57.380Z,2.90
2018-12-13T12:36:25.721Z,2.90
2018-12-13T12:38:53.984Z,2.90
2018-12-13T12:41:22.296Z,3.20
2018-12-13T12:43:50.615Z,3.40
2018-12-13T12:46:18.926Z,3.40
2018-12-13T12:48:47.268Z,3.30
2018-12-13T12:51:15.679Z,3.20
2018-12-13T12:53:43.951Z,3.30
2018-12-13T12:56:12.208Z,3.30
2018-12-13T12:58:40.792Z,3.50
2018-12-13T13:01:09.127Z,3.50
2018-12-13T13:03:37.453Z,3.50
2018-12-13T13:06:05.820Z,3.40
2018-12-13T13:08:34.081Z,3.30
2018-12-13T13:11:02.648Z,3.40
2018-12-13T13:16:33.794Z,3.40
2018-12-13T13:19:02.103Z,3.40
2018-12-13T13:21:30.618Z,3.20
2018-12-13T13:23:58.925Z,3.30
2018-12-13T13:26:27.356Z,3.40
2018-12-13T13:28:55.798Z,3.40
2018-12-13T13:31:24.404Z,3.40
2018-12-13T13:33:52.785Z,3.20
2018-12-13T13:36:21.092Z,3.10
2018-12-13T13:38:56.072Z,2.90
2018-12-13T13:41:24.548Z,2.90
2018-12-13T13:43:52.879Z,3.10
2018-12-13T13:46:21.334Z,3.10
2018-12-13T13:48:49.703Z,3.10
2018-12-13T13:51:18.259Z,3.10
2018-12-13T13:53:46.646Z,3.00
2018-12-13T13:56:14.984Z,2.90
2018-12-13T13:58:43.496Z,3.00
2018-12-13T14:01:11.830Z,3.00
2018-12-13T14:03:40.663Z,3.00
2018-12-13T14:06:09.051Z,2.90
2018-12-13T14:08:37.435Z,2.90
2018-12-13T14:11:05.900Z,2.90
2018-12-13T14:13:34.291Z,2.80
2018-12-13T14:16:02.623Z,2.80
2018-12-13T14:18:30.959Z,3.00
2018-12-13T14:20:59.309Z,3.20
2018-12-13T14:23:27.649Z,3.10
2018-12-13T14:25:56.199Z,3.00
2018-12-13T14:28:24.924Z,2.90
2018-12-13T14:30:53.939Z,2.90
2018-12-13T14:33:23.155Z,3.00
2018-12-13T14:35:51.483Z,3.00
2018-12-13T14:38:19.818Z,3.00
2018-12-13T14:40:48.152Z,3.00
2018-12-13T14:43:16.542Z,3.00
2018-12-13T14:45:45.043Z,3.00
2018-12-13T14:48:13.517Z,3.10
2018-12-13T14:50:42.012Z,3.10
2018-12-13T14:53:10.581Z,3.20
2018-12-13T14:55:39.768Z,3.00
2018-12-13T14:58:08.559Z,3.00
2018-12-13T15:00:36.959Z,3.20
2018-12-13T15:03:05.328Z,3.10
2018-12-13T15:05:33.728Z,3.10
2018-12-13T15:08:02.061Z,3.10
2018-12-13T15:10:30.490Z,3.10
2018-12-13T15:12:58.901Z,3.00
2018-12-13T15:15:27.243Z,3.10
2018-12-13T15:17:55.614Z,3.00
2018-12-13T15:20:24.044Z,3.00
2018-12-13T15:22:52.418Z,3.00
2018-12-13T15:25:20.850Z,2.90
2018-12-13T15:27:49.444Z,2.90
2018-12-13T15:30:17.927Z,2.80
2018-12-13T15:32:46.313Z,2.80
2018-12-13T15:35:14.738Z,2.90
2018-12-13T15:37:43.140Z,2.90
2018-12-13T15:40:11.884Z,2.80
2018-12-13T15:42:40.368Z,2.80
2018-12-13T15:45:09.852Z,2.90
2018-12-13T15:47:38.295Z,2.90
2018-12-13T15:50:07.661Z,3.00
2018-12-13T15:52:36.192Z,2.90
2018-12-13T15:55:04.720Z,2.90
2018-12-13T15:57:33.627Z,3.00
2018-12-13T16:00:02.119Z,2.90
2018-12-13T16:02:30.462Z,2.80
2018-12-13T16:04:58.817Z,2.80
2018-12-13T16:07:27.461Z,2.80
2018-12-13T16:09:55.846Z,2.60
2018-12-13T16:12:24.252Z,2.60
2018-12-13T16:14:52.664Z,2.60
2018-12-13T16:17:21.129Z,2.50
2018-12-13T16:19:49.654Z,2.50
2018-12-13T16:22:18.215Z,2.60
2018-12-13T16:24:46.636Z,2.50
2018-12-13T16:27:15.043Z,2.50
2018-12-13T16:29:43.582Z,2.50
2018-12-13T16:32:12.010Z,2.60
2018-12-13T16:34:40.461Z,2.60
2018-12-13T16:37:08.869Z,2.70
2018-12-13T16:39:37.220Z,2.60
2018-12-13T16:42:05.653Z,2.70
2018-12-13T16:44:34.038Z,2.50
2018-12-13T16:47:02.698Z,2.30
2018-12-13T16:49:31.120Z,2.30
2018-12-13T16:51:59.544Z,2.30
2018-12-13T16:54:27.996Z,2.30
2018-12-13T16:56:56.847Z,2.40
2018-12-13T16:59:25.410Z,2.40
2018-12-13T17:01:53.743Z,2.30
2018-12-13T17:04:22.054Z,2.20
2018-12-13T17:06:50.414Z,2.30
2018-12-13T17:09:18.747Z,2.20
2018-12-13T17:11:47.073Z,2.20
2018-12-13T17:14:15.489Z,2.40
2018-12-13T17:16:43.939Z,2.60
2018-12-13T17:19:12.346Z,2.60
2018-12-13T17:21:40.775Z,2.60
2018-12-13T17:24:09.118Z,2.60
2018-12-13T17:26:37.476Z,2.70
2018-12-13T17:29:05.943Z,2.70
2018-12-13T17:31:34.299Z,2.70
2018-12-13T17:34:02.993Z,2.60
2018-12-13T17:36:31.349Z,2.70
2018-12-13T17:38:59.740Z,2.90
2018-12-13T17:41:28.184Z,3.00
2018-12-13T17:43:56.497Z,3.00
2018-12-13T17:46:24.977Z,2.80
2018-12-13T17:48:53.340Z,2.50
2018-12-13T17:51:21.748Z,2.80
2018-12-13T17:53:50.139Z,2.90
2018-12-13T17:56:18.441Z,2.70
2018-12-13T17:58:46.791Z,2.60
2018-12-13T18:01:33.521Z,2.50
2018-12-13T18:04:02.740Z,2.30
2018-12-13T18:06:31.148Z,2.60
2018-12-13T18:08:59.484Z,2.70
2018-12-13T18:11:27.884Z,2.60
2018-12-13T18:13:56.215Z,2.60
2018-12-13T18:16:24.882Z,2.30
2018-12-13T18:18:53.312Z,2.30
2018-12-13T18:21:21.610Z,2.30
2018-12-13T18:23:49.942Z,2.40
2018-12-13T18:26:18.365Z,2.40
2018-12-13T18:28:46.721Z,2.30
2018-12-13T18:31:15.030Z,2.40
2018-12-13T18:33:43.432Z,2.50
2018-12-13T18:36:11.973Z,2.60
2018-12-13T18:38:40.486Z,3.00
2018-12-13T18:41:08.956Z,3.00
2018-12-13T18:43:37.904Z,2.80
2018-12-13T18:46:06.256Z,3.30
2018-12-13T18:48:34.605Z,3.00
2018-12-13T18:51:02.921Z,2.80
2018-12-13T18:53:31.403Z,2.60
2018-12-13T18:55:59.908Z,2.50
2018-12-13T18:58:28.245Z,2.40
2018-12-13T19:00:56.683Z,2.40
2018-12-13T19:03:25.115Z,2.60
2018-12-13T19:05:53.675Z,2.40
2018-12-13T19:08:22.391Z,2.50
2018-12-13T19:10:50.914Z,2.40
2018-12-13T19:13:19.525Z,2.30
2018-12-13T19:15:47.946Z,2.40
2018-12-13T19:18:17.063Z,2.30
2018-12-13T19:20:45.570Z,2.30
2018-12-13T19:23:15.266Z,2.30
2018-12-13T19:25:43.861Z,2.40
2018-12-13T19:28:12.200Z,2.30
2018-12-13T19:30:40.633Z,2.20
2018-12-13T19:33:08.974Z,2.20
2018-12-13T19:35:37.413Z,2.20
2018-12-13T19:38:05.733Z,2.20
2018-12-13T19:40:34.061Z,2.40
2018-12-13T19:43:02.406Z,2.30
2018-12-13T19:45:30.748Z,2.20
2018-12-13T19:47:59.082Z,2.30
2018-12-13T19:50:27.376Z,2.60
2018-12-13T19:52:55.689Z,2.50
2018-12-13T19:55:24.045Z,2.30
2018-12-13T19:57:52.358Z,2.30
2018-12-13T20:00:20.969Z,2.30
2018-12-13T20:02:49.325Z,2.20
2018-12-13T20:05:17.745Z,2.10
2018-12-13T20:07:46.074Z,2.10
2018-12-13T20:10:14.467Z,2.20
2018-12-13T20:12:43.057Z,2.20
2018-12-13T20:15:11.579Z,2.10
2018-12-13T20:17:39.910Z,2.30
2018-12-13T20:20:08.433Z,2.40
2018-12-13T20:22:36.729Z,2.50
2018-12-13T20:25:06.284Z,2.50
2018-12-13T20:27:34.585Z,2.40
2018-12-13T20:30:03.282Z,2.50
2018-12-13T20:32:31.721Z,2.40
2018-12-13T20:35:00.324Z,2.70
2018-12-13T20:37:28.886Z,2.50
2018-12-13T20:39:57.185Z,2.40
2018-12-13T20:42:25.585Z,2.30
2018-12-13T20:44:53.941Z,2.10
2018-12-13T20:47:22.353Z,2.40
2018-12-13T20:49:50.675Z,2.50
2018-12-13T20:52:19.938Z,2.50
2018-12-13T20:54:48.272Z,2.40
2018-12-13T20:57:16.642Z,2.30
2018-12-13T20:59:44.951Z,2.10
2018-12-13T21:02:13.274Z,2.00
2018-12-13T21:04:41.617Z,2.00
2018-12-13T21:07:15.470Z,2.00
2018-12-13T21:09:43.800Z,2.10
2018-12-13T21:12:12.107Z,2.20
2018-12-13T21:14:40.578Z,2.30
2018-12-13T21:17:08.949Z,2.30
2018-12-13T21:19:37.324Z,2.40
2018-12-13T21:22:05.726Z,2.50
2018-12-13T21:24:34.088Z,2.40
2018-12-13T21:27:03.183Z,2.50
2018-12-13T21:29:31.473Z,2.60
2018-12-13T21:31:59.814Z,2.50
2018-12-13T21:34:28.117Z,2.40
2018-12-13T21:36:56.444Z,2.30
2018-12-13T21:39:24.952Z,2.20
2018-12-13T21:41:53.337Z,2.30
2018-12-13T21:44:21.661Z,2.30
2018-12-13T21:46:49.974Z,2.20
2018-12-13T21:49:19.132Z,2.20
2018-12-13T21:51:47.447Z,2.30
2018-12-13T21:54:16.501Z,2.40
2018-12-13T21:56:45.888Z,2.40
2018-12-13T21:59:14.191Z,2.20
2018-12-13T22:01:42.530Z,2.10
2018-12-13T22:04:10.842Z,2.00
2018-12-13T22:06:39.509Z,2.10
2018-12-13T22:09:08.393Z,2.20
2018-12-13T22:11:36.950Z,2.30
2018-12-13T22:14:05.279Z,2.50
2018-12-13T22:16:33.581Z,2.50
2018-12-13T22:19:02.144Z,2.50
2018-12-13T22:21:30.579Z,2.50
2018-12-13T22:23:58.900Z,2.50
2018-12-13T22:26:27.363Z,2.40
2018-12-13T22:28:55.687Z,2.40
2018-12-13T22:31:24.047Z,2.30
2018-12-13T22:33:52.557Z,2.30
2018-12-13T22:36:20.891Z,2.30
2018-12-13T22:38:49.237Z,2.30
2018-12-13T22:41:17.791Z,2.30
2018-12-13T22:43:46.274Z,2.30
2018-12-13T22:46:14.622Z,2.30
2018-12-13T22:48:42.975Z,2.30
2018-12-13T22:51:11.437Z,2.20
2018-12-13T22:53:39.771Z,2.20
2018-12-13T22:56:08.168Z,2.50
2018-12-13T22:58:36.530Z,2.50
2018-12-13T23:01:05.351Z,2.60
2018-12-13T23:03:34.065Z,2.60
2018-12-13T23:06:02.585Z,2.50
2018-12-13T23:08:31.820Z,2.30
2018-12-13T23:11:00.446Z,2.20
2018-12-13T23:13:28.808Z,2.20
2018-12-13T23:15:57.393Z,2.40
2018-12-13T23:18:25.824Z,2.40
2018-12-13T23:20:54.336Z,2.40
2018-12-13T23:23:22.698Z,2.40
2018-12-13T23:25:51.120Z,2.70
2018-12-13T23:28:19.439Z,2.80
2018-12-13T23:30:47.756Z,3.00
2018-12-13T23:33:16.255Z,2.90
2018-12-13T23:35:44.663Z,2.80
2018-12-13T23:38:13.013Z,2.80
2018-12-13T23:40:41.368Z,2.90
2018-12-13T23:43:09.703Z,2.80
2018-12-13T23:45:38.820Z,2.70
2018-12-13T23:48:07.237Z,2.60
2018-12-13T23:50:35.955Z,2.50
2018-12-13T23:53:04.334Z,2.50
2018-12-13T23:55:32.629Z,2.70
2018-12-13T23:58:01.121Z,2.70
